Time;durP1;ratioP1;P1;durP2;ratioP2;P2;SDS_P1;SDS_P2;PMS_P1;PMS_P2;Temp;Humidity;BMP_temperature;BMP_pressure;BME280_temperature;BME280_humidity;BME280_pressure;Samples;Min_cycle;Max_cycle;Signal;HPM_P1;HPM_P2
2023/03/08 00:03:01;;;;;;;6.82;3.45;;;2.70;99.90;;;;;;8229637;28;20015;-76
2023/03/08 00:07:02;;;;;;;8.55;3.35;;;2.70;99.90;;;;;;8232078;28;20077;-77
2023/03/08 00:11:07;;;;;;;10.45;3.10;;;2.50;99.90;;;;;;8231526;28;20027;-77
2023/03/08 00:15:08;;;;;;;7.47;3.25;;;2.40;99.90;;;;;;8231179;28;20027;-76
2023/03/08 00:19:08;;;;;;;8.07;3.13;;;2.30;99.90;;;;;;8230904;28;20602;-77
2023/03/08 00:23:09;;;;;;;7.72;3.40;;;2.40;99.90;;;;;;8231962;28;20028;-77
2023/03/08 00:27:09;;;;;;;8.45;3.15;;;2.20;99.90;;;;;;8224123;28;20023;-77
2023/03/08 00:31:12;;;;;;;8.80;3.67;;;2.10;99.90;;;;;;8230972;28;20023;-77
2023/03/08 00:35:12;;;;;;;9.10;2.72;;;1.80;99.90;;;;;;8230445;28;20038;-77
2023/03/08 00:39:15;;;;;;;5.85;2.67;;;1.80;99.90;;;;;;8231739;28;20034;-77
2023/03/08 00:43:15;;;;;;;7.25;3.35;;;1.70;99.90;;;;;;8229825;28;20514;-78
2023/03/08 00:47:16;;;;;;;6.60;3.20;;;1.50;99.90;;;;;;8229460;28;20018;-77
2023/03/08 00:51:19;;;;;;;9.93;3.83;;;1.50;99.90;;;;;;8224971;28;20069;-77
2023/03/08 00:55:19;;;;;;;6.53;3.20;;;1.50;99.90;;;;;;8229088;28;20023;-77
2023/03/08 00:59:20;;;;;;;7.43;3.42;;;1.40;99.90;;;;;;8229721;28;20038;-79
2023/03/08 01:03:20;;;;;;;9.25;4.30;;;1.10;99.90;;;;;;8220940;28;20050;-78
2023/03/08 01:07:22;;;;;;;9.65;3.33;;;1.20;99.90;;;;;;8222613;28;20042;-76
2023/03/08 01:11:25;;;;;;;7.45;3.75;;;1.20;99.90;;;;;;8223856;28;20015;-77
2023/03/08 01:15:26;;;;;;;8.27;3.50;;;1.70;99.90;;;;;;8228752;28;20033;-77
2023/03/08 01:19:26;;;;;;;5.10;2.70;;;2.00;99.90;;;;;;8228927;28;20027;-77
2023/03/08 01:23:27;;;;;;;9.82;3.65;;;2.00;99.90;;;;;;8228585;28;20151;-77
2023/03/08 01:27:27;;;;;;;7.93;4.00;;;2.20;99.90;;;;;;8226938;28;20026;-77
2023/03/08 01:31:29;;;;;;;8.00;4.00;;;2.20;99.90;;;;;;8228656;28;20019;-77
2023/03/08 01:35:30;;;;;;;11.00;3.55;;;2.20;99.90;;;;;;8228412;28;20035;-77
2023/03/08 01:39:31;;;;;;;9.88;4.13;;;2.20;99.90;;;;;;8228494;28;20030;-77
2023/03/08 01:43:37;;;;;;;9.02;3.83;;;2.10;99.90;;;;;;8222881;28;20113;-76
2023/03/08 01:47:37;;;;;;;7.93;3.70;;;2.10;99.90;;;;;;8229060;28;20069;-77
2023/03/08 01:51:52;;;;;;;12.30;4.03;;;2.10;99.90;;;;;;8215263;28;20015;-77
2023/03/08 01:55:54;;;;;;;10.43;4.32;;;2.10;99.90;;;;;;8216707;28;20027;-78
2023/03/08 01:59:57;;;;;;;11.95;4.25;;;2.00;99.90;;;;;;8227755;28;20415;-77
2023/03/08 02:03:57;;;;;;;15.02;4.90;;;2.00;99.90;;;;;;8209373;28;20483;-76
2023/03/08 02:07:58;;;;;;;10.13;3.72;;;1.90;99.90;;;;;;8227465;28;20081;-77
2023/03/08 02:12:04;;;;;;;9.32;4.57;;;1.80;99.90;;;;;;8226866;28;20023;-78
2023/03/08 02:16:08;;;;;;;9.60;4.65;;;1.70;99.90;;;;;;8226604;28;20033;-77
2023/03/08 02:20:24;;;;;;;6.85;3.10;;;1.50;99.90;;;;;;8204901;28;20029;-77
2023/03/08 02:24:25;;;;;;;12.00;4.63;;;1.50;99.90;;;;;;8222146;28;20028;-77
2023/03/08 02:28:27;;;;;;;13.27;4.65;;;1.50;99.90;;;;;;8225062;28;20034;-77
2023/03/08 02:32:27;;;;;;;9.02;4.30;;;1.40;99.90;;;;;;8227988;28;20047;-78
2023/03/08 02:36:28;;;;;;;8.68;4.50;;;1.30;99.90;;;;;;8226630;28;20033;-77
2023/03/08 02:40:28;;;;;;;11.05;4.78;;;1.20;99.90;;;;;;8226861;28;20096;-78
2023/03/08 02:44:29;;;;;;;14.82;6.07;;;1.10;99.90;;;;;;8226159;28;20499;-77
2023/03/08 02:48:30;;;;;;;10.02;4.47;;;1.10;99.90;;;;;;8220600;28;20107;-78
2023/03/08 02:52:30;;;;;;;15.30;5.45;;;1.20;99.90;;;;;;8210373;28;20019;-77
2023/03/08 02:56:31;;;;;;;10.60;5.15;;;1.40;99.90;;;;;;8218910;28;20026;-76
2023/03/08 03:00:32;;;;;;;11.75;5.22;;;1.50;99.90;;;;;;8226025;28;20546;-76
2023/03/08 03:04:33;;;;;;;12.60;5.53;;;1.50;99.90;;;;;;8210035;28;20054;-76
2023/03/08 03:08:33;;;;;;;14.60;5.45;;;1.50;99.90;;;;;;8227211;28;20034;-78
2023/03/08 03:12:34;;;;;;;11.63;5.72;;;1.70;99.90;;;;;;8225512;28;20081;-77
2023/03/08 03:16:35;;;;;;;11.25;5.85;;;1.60;99.90;;;;;;8220651;28;20021;-77
2023/03/08 03:20:36;;;;;;;11.60;5.63;;;1.70;99.90;;;;;;8223974;28;20109;-76
2023/03/08 03:24:36;;;;;;;11.23;5.45;;;1.90;99.90;;;;;;8219425;28;20067;-76
2023/03/08 03:28:37;;;;;;;10.93;4.95;;;1.90;99.90;;;;;;8226731;28;20589;-77
2023/03/08 03:32:37;;;;;;;11.20;5.22;;;1.90;99.90;;;;;;8232229;28;20454;-77
2023/03/08 03:36:38;;;;;;;15.05;6.35;;;2.00;99.90;;;;;;8231878;28;20023;-77
2023/03/08 03:40:39;;;;;;;8.98;4.53;;;2.10;99.90;;;;;;8233216;28;20010;-76
2023/03/08 03:44:39;;;;;;;14.02;5.40;;;2.10;99.90;;;;;;8232675;28;20535;-76
2023/03/08 03:48:40;;;;;;;20.60;7.22;;;2.20;99.90;;;;;;8224691;28;20023;-76
2023/03/08 03:52:41;;;;;;;19.50;7.05;;;2.20;99.90;;;;;;8230700;28;20030;-78
2023/03/08 03:56:41;;;;;;;15.55;6.65;;;2.20;99.90;;;;;;8228369;28;20029;-77
2023/03/08 04:00:42;;;;;;;16.23;6.43;;;2.20;99.90;;;;;;8229638;28;20023;-77
2023/03/08 04:04:42;;;;;;;13.23;6.03;;;2.00;99.90;;;;;;8230389;28;20488;-77
2023/03/08 04:08:43;;;;;;;9.13;4.20;;;1.90;99.90;;;;;;8231988;28;20046;-77
2023/03/08 04:12:48;;;;;;;13.23;5.95;;;1.90;99.90;;;;;;8230203;28;20077;-77
2023/03/08 04:16:48;;;;;;;17.25;6.55;;;1.80;99.90;;;;;;8231559;28;20019;-76
2023/03/08 04:20:49;;;;;;;14.52;5.85;;;1.70;99.90;;;;;;8230619;28;20058;-77
2023/03/08 04:24:49;;;;;;;13.32;5.47;;;1.60;99.90;;;;;;8225343;28;20026;-77
2023/03/08 04:28:50;;;;;;;12.10;5.70;;;1.80;99.90;;;;;;8228977;28;20047;-77
2023/03/08 04:32:50;;;;;;;11.85;5.95;;;1.90;99.90;;;;;;8231255;28;20110;-77
2023/03/08 04:36:51;;;;;;;17.38;6.75;;;1.90;99.90;;;;;;8231267;28;20058;-78
2023/03/08 04:41:00;;;;;;;17.95;7.20;;;1.80;99.90;;;;;;8228903;28;20073;-77
2023/03/08 04:45:01;;;;;;;20.45;6.35;;;1.50;99.90;;;;;;8185712;28;20033;-77
2023/03/08 04:49:02;;;;;;;15.50;6.47;;;1.50;99.90;;;;;;8211894;28;20031;-77
2023/03/08 04:53:02;;;;;;;15.77;6.63;;;1.50;99.90;;;;;;8221126;28;20058;-77
2023/03/08 04:57:03;;;;;;;15.48;5.75;;;1.50;99.90;;;;;;8224644;28;20102;-76
2023/03/08 05:01:11;;;;;;;18.48;6.38;;;1.50;99.90;;;;;;8226585;28;20027;-77
2023/03/08 05:05:12;;;;;;;15.43;6.57;;;1.50;99.90;;;;;;8206522;28;20671;-77
2023/03/08 05:09:12;;;;;;;13.68;6.25;;;1.50;99.90;;;;;;8226282;28;20019;-81
2023/03/08 05:13:13;;;;;;;11.68;6.25;;;1.60;99.90;;;;;;8218814;28;20030;-77
2023/03/08 05:17:14;;;;;;;14.15;6.32;;;1.70;99.90;;;;;;8225698;28;20109;-77
2023/03/08 05:21:17;;;;;;;16.58;6.78;;;1.70;99.90;;;;;;8220211;28;20029;-77
2023/03/08 05:25:18;;;;;;;17.23;6.32;;;1.80;99.90;;;;;;8215622;28;20022;-77
2023/03/08 05:29:18;;;;;;;10.68;5.90;;;1.90;99.90;;;;;;8223172;28;20056;-77
2023/03/08 05:33:19;;;;;;;22.77;7.35;;;2.00;99.90;;;;;;8228739;28;20023;-77
2023/03/08 05:37:19;;;;;;;17.75;7.45;;;1.90;99.90;;;;;;8225102;28;20042;-77
2023/03/08 05:41:20;;;;;;;13.45;6.03;;;1.60;99.90;;;;;;8212322;28;20045;-77
2023/03/08 05:45:20;;;;;;;16.42;7.47;;;1.30;99.90;;;;;;8226303;28;20089;-78
2023/03/08 05:49:21;;;;;;;21.70;8.63;;;1.30;99.90;;;;;;8220306;28;20023;-77
2023/03/08 05:53:22;;;;;;;23.15;10.25;;;1.20;99.90;;;;;;8226513;28;20476;-77
2023/03/08 05:57:23;;;;;;;18.48;8.27;;;1.20;99.90;;;;;;8226449;28;20035;-81
2023/03/08 06:01:25;;;;;;;22.63;9.60;;;1.40;99.90;;;;;;8227037;28;20581;-78
2023/03/08 06:05:26;;;;;;;23.45;10.68;;;1.40;99.90;;;;;;8229359;28;20034;-78
2023/03/08 06:09:26;;;;;;;24.23;9.52;;;1.40;99.90;;;;;;8227811;28;20019;-76
2023/03/08 06:13:27;;;;;;;18.45;8.57;;;1.50;99.90;;;;;;8227662;28;20027;-77
2023/03/08 06:17:27;;;;;;;19.50;8.07;;;1.60;99.90;;;;;;8227343;28;20026;-77
2023/03/08 06:21:28;;;;;;;14.93;7.38;;;1.80;99.90;;;;;;8227226;28;20057;-78
2023/03/08 06:25:28;;;;;;;14.98;7.30;;;2.10;99.90;;;;;;8227645;28;20030;-77
2023/03/08 06:29:29;;;;;;;17.02;7.10;;;2.30;99.90;;;;;;8227645;28;20085;-77
2023/03/08 06:33:31;;;;;;;16.70;7.07;;;2.20;99.90;;;;;;8227848;28;20030;-77
2023/03/08 06:37:33;;;;;;;13.02;7.03;;;2.40;99.90;;;;;;8228411;28;20046;-77
2023/03/08 06:41:34;;;;;;;19.30;7.65;;;2.50;99.90;;;;;;8227161;28;20216;-78
2023/03/08 06:45:37;;;;;;;16.08;6.95;;;2.40;99.90;;;;;;8226553;28;20599;-77
2023/03/08 06:49:38;;;;;;;15.90;6.70;;;2.60;99.90;;;;;;8221477;28;20085;-77
2023/03/08 06:53:39;;;;;;;16.63;7.18;;;2.90;99.90;;;;;;8226588;28;20022;-77
2023/03/08 06:57:39;;;;;;;21.65;8.02;;;3.30;99.90;;;;;;8223559;28;20026;-77
2023/03/08 07:01:40;;;;;;;12.57;4.68;;;3.60;99.90;;;;;;8226709;28;20027;-77
2023/03/08 07:05:41;;;;;;;25.38;11.40;;;3.80;99.90;;;;;;8233451;28;20027;-77
2023/03/08 07:09:41;;;;;;;32.63;14.20;;;4.00;99.90;;;;;;8233727;28;20034;-76
2023/03/08 07:13:42;;;;;;;15.95;6.85;;;4.20;99.90;;;;;;8233176;28;20488;-77
2023/03/08 07:17:42;;;;;;;19.75;9.65;;;4.50;99.90;;;;;;8234231;28;20030;-77
2023/03/08 07:21:43;;;;;;;14.00;7.18;;;4.60;99.90;;;;;;8234335;28;20554;-77
2023/03/08 07:25:43;;;;;;;11.73;5.28;;;4.90;99.90;;;;;;8234273;28;20027;-77
2023/03/08 07:29:44;;;;;;;17.88;7.20;;;5.20;99.90;;;;;;8233185;28;20042;-77
2023/03/08 07:33:45;;;;;;;17.08;8.15;;;5.40;99.90;;;;;;8232767;28;20070;-78
2023/03/08 07:37:47;;;;;;;11.77;4.97;;;5.60;99.90;;;;;;8229429;28;20031;-77
2023/03/08 07:41:48;;;;;;;13.27;5.75;;;5.80;99.90;;;;;;8233893;28;20423;-79
2023/03/08 07:45:49;;;;;;;8.40;4.82;;;5.80;99.90;;;;;;8234937;28;20121;-77
2023/03/08 07:49:49;;;;;;;7.72;3.92;;;6.00;99.90;;;;;;8225816;28;20376;-77
2023/03/08 07:53:51;;;;;;;13.75;6.80;;;6.10;99.90;;;;;;8232073;28;20138;-78
2023/03/08 07:57:52;;;;;;;12.73;6.13;;;5.90;99.90;;;;;;8230925;28;20063;-76
2023/03/08 08:01:52;;;;;;;11.15;5.38;;;5.80;99.90;;;;;;8228778;28;20683;-78
2023/03/08 08:05:53;;;;;;;13.65;5.93;;;5.70;99.90;;;;;;8232775;28;20035;-77
2023/03/08 08:09:53;;;;;;;12.18;5.57;;;5.70;99.90;;;;;;8233153;28;20038;-78
2023/03/08 08:13:54;;;;;;;9.27;4.63;;;5.60;99.90;;;;;;8230988;28;20065;-78
2023/03/08 08:17:54;;;;;;;9.75;5.18;;;5.60;99.90;;;;;;8232865;28;20035;-78
2023/03/08 08:21:55;;;;;;;12.52;5.75;;;5.50;99.90;;;;;;8231598;28;20091;-77
2023/03/08 08:25:56;;;;;;;9.13;5.03;;;5.50;99.90;;;;;;8231521;28;20035;-77
2023/03/08 08:29:58;;;;;;;15.90;6.07;;;5.60;99.90;;;;;;8230549;28;20034;-79
2023/03/08 08:33:59;;;;;;;15.10;6.35;;;5.60;99.90;;;;;;8232778;28;20045;-78
2023/03/08 08:37:59;;;;;;;15.73;6.28;;;5.60;99.90;;;;;;8231345;28;20037;-76
2023/03/08 08:42:00;;;;;;;13.70;6.97;;;5.50;99.90;;;;;;8230043;28;20022;-77
2023/03/08 08:46:02;;;;;;;14.50;6.88;;;5.60;99.90;;;;;;8230762;28;20023;-76
2023/03/08 08:50:03;;;;;;;17.00;6.65;;;5.70;99.90;;;;;;8224980;28;20019;-77
2023/03/08 08:54:03;;;;;;;10.05;4.07;;;5.70;99.90;;;;;;8229574;28;20028;-77
2023/03/08 08:58:05;;;;;;;12.10;5.13;;;5.80;99.90;;;;;;8229934;28;20195;-77
2023/03/08 09:02:06;;;;;;;12.10;4.88;;;5.90;99.90;;;;;;8229187;28;20026;-78
2023/03/08 09:06:06;;;;;;;7.45;3.90;;;6.20;99.90;;;;;;8228964;28;20055;-77
2023/03/08 09:10:08;;;;;;;8.02;3.33;;;6.70;99.90;;;;;;8229175;28;20021;-77
2023/03/08 09:14:08;;;;;;;9.32;4.50;;;7.00;99.90;;;;;;8229961;28;20041;-77
2023/03/08 09:18:09;;;;;;;7.57;4.18;;;7.00;99.90;;;;;;8231346;28;20039;-78
2023/03/08 09:22:10;;;;;;;10.90;4.10;;;6.80;99.90;;;;;;8229010;28;20059;-78
2023/03/08 09:26:11;;;;;;;11.50;5.10;;;6.70;99.90;;;;;;8227351;28;20069;-77
2023/03/08 09:30:13;;;;;;;11.15;5.20;;;6.70;99.90;;;;;;8227569;28;20050;-78
2023/03/08 09:34:14;;;;;;;6.63;3.58;;;6.80;99.90;;;;;;8230027;28;20037;-77
2023/03/08 09:38:15;;;;;;;9.00;4.32;;;6.60;99.90;;;;;;8229909;28;20479;-77
2023/03/08 09:42:29;;;;;;;7.47;3.58;;;6.60;99.90;;;;;;8228174;28;20057;-77
2023/03/08 09:46:35;;;;;;;6.88;3.28;;;6.60;99.90;;;;;;8227992;28;20031;-78
2023/03/08 09:50:47;;;;;;;7.57;3.53;;;6.60;99.90;;;;;;8219762;28;20399;-78
2023/03/08 09:54:49;;;;;;;8.13;4.05;;;6.60;99.90;;;;;;8227055;28;20030;-77
2023/03/08 09:58:53;;;;;;;7.03;3.17;;;6.70;99.90;;;;;;8216418;28;20030;-78
2023/03/08 10:03:05;;;;;;;7.03;3.90;;;7.10;99.90;;;;;;8227794;28;20034;-77
2023/03/08 10:07:16;;;;;;;5.82;3.35;;;7.40;99.90;;;;;;8227287;28;20026;-77
2023/03/08 10:11:39;;;;;;;6.35;3.65;;;7.40;99.90;;;;;;8228692;28;20038;-77
2023/03/08 10:15:45;;;;;;;7.45;3.53;;;7.40;99.90;;;;;;8228705;28;20022;-76
2023/03/08 10:19:58;;;;;;;4.60;1.50;;;7.70;99.90;;;;;;8227491;28;20113;-77
2023/03/08 10:24:30;;;;;;;6.72;3.17;;;8.00;99.90;;;;;;8217560;28;20057;-78
2023/03/08 10:28:30;;;;;;;6.13;3.45;;;8.20;99.90;;;;;;8205875;28;20023;-78
2023/03/08 10:32:31;;;;;;;7.85;3.05;;;8.60;99.90;;;;;;8227438;28;20049;-77
2023/03/08 10:36:32;;;;;;;6.75;3.22;;;9.10;99.90;;;;;;8228267;28;20503;-78
2023/03/08 10:40:32;;;;;;;8.40;3.67;;;9.30;99.90;;;;;;8226168;28;20022;-78
2023/03/08 10:44:54;;;;;;;4.75;2.72;;;9.90;99.90;;;;;;8225131;28;20455;-77
2023/03/08 10:49:07;;;;;;;5.68;3.22;;;10.10;99.90;;;;;;8209061;28;20027;-78
2023/03/08 10:53:18;;;;;;;5.13;2.67;;;10.20;99.90;;;;;;8225998;28;20054;-77
2023/03/08 10:57:20;;;;;;;4.88;3.40;;;10.30;99.90;;;;;;8224221;28;20031;-77
2023/03/08 11:01:29;;;;;;;7.70;4.13;;;10.10;99.90;;;;;;8225277;28;20545;-77
2023/03/08 11:05:30;;;;;;;5.47;3.17;;;10.30;99.90;;;;;;8227029;28;20561;-77
2023/03/08 11:09:35;;;;;;;4.30;2.55;;;10.70;99.90;;;;;;8226779;28;20030;-77
2023/03/08 11:13:40;;;;;;;3.83;2.05;;;11.20;99.90;;;;;;8225366;28;20034;-75
2023/03/08 11:18:15;;;;;;;3.75;2.38;;;11.10;99.90;;;;;;8224593;28;20027;-77
2023/03/08 11:22:40;;;;;;;4.20;1.98;;;11.60;99.90;;;;;;8203950;28;20109;-77
2023/03/08 11:27:02;;;;;;;5.78;3.13;;;11.00;99.90;;;;;;8222263;28;20027;-78
2023/03/08 11:31:22;;;;;;;5.45;2.67;;;10.60;99.90;;;;;;8216958;28;20019;-78
2023/03/08 11:35:44;;;;;;;6.57;3.17;;;10.60;99.90;;;;;;8225329;28;20058;-77
2023/03/08 11:40:18;;;;;;;5.55;3.28;;;10.70;99.90;;;;;;8225288;28;20034;-77
2023/03/08 11:44:36;;;;;;;2.72;1.67;;;11.30;99.90;;;;;;8224806;28;20376;-78
2023/03/08 11:49:14;;;;;;;4.35;3.00;;;11.40;99.90;;;;;;8215324;28;20123;-77
2023/03/08 11:53:33;;;;;;;5.43;3.00;;;11.50;99.90;;;;;;8226428;28;20065;-78
2023/03/08 11:57:42;;;;;;;4.47;2.50;;;11.50;99.90;;;;;;8229592;28;20023;-78
2023/03/08 12:01:46;;;;;;;5.80;3.30;;;11.40;99.90;;;;;;8218500;28;20023;-79
2023/03/08 12:05:56;;;;;;;2.45;1.58;;;11.20;99.90;;;;;;8230246;28;20373;-78
2023/03/08 12:10:02;;;;;;;4.20;2.53;;;10.90;99.90;;;;;;8219972;28;20412;-78
2023/03/08 12:14:12;;;;;;;4.82;1.65;;;10.80;99.90;;;;;;8231222;28;20019;-78
2023/03/08 12:18:45;;;;;;;3.90;2.15;;;10.60;99.90;;;;;;8231332;28;20034;-78
2023/03/08 12:22:53;;;;;;;3.45;2.05;;;10.70;99.90;;;;;;8203091;28;20037;-77
2023/03/08 12:26:57;;;;;;;3.20;2.08;;;10.30;99.90;;;;;;8216952;28;20027;-77
2023/03/08 12:31:07;;;;;;;3.58;2.08;;;10.20;99.90;;;;;;8220098;28;20395;-77
2023/03/08 12:35:28;;;;;;;3.10;1.58;;;10.20;99.90;;;;;;8222770;28;20054;-77
2023/03/08 12:39:34;;;;;;;2.13;1.13;;;10.50;99.90;;;;;;8229897;28;20141;-77
2023/03/08 12:43:36;;;;;;;1.52;1.13;;;10.70;99.90;;;;;;8229953;28;20490;-80
2023/03/08 12:47:37;;;;;;;2.45;1.08;;;10.90;99.90;;;;;;8230284;28;20019;-76
2023/03/08 12:51:40;;;;;;;0.95;0.85;;;10.80;99.90;;;;;;8229054;28;20109;-77
2023/03/08 12:55:41;;;;;;;1.58;1.02;;;10.90;99.90;;;;;;8228980;28;20051;-77
2023/03/08 12:59:43;;;;;;;1.70;1.00;;;10.70;99.90;;;;;;8227433;28;20019;-77
2023/03/08 13:03:43;;;;;;;1.13;0.90;;;10.70;99.90;;;;;;8226981;28;20030;-77
2023/03/08 13:08:14;;;;;;;1.30;0.88;;;10.70;99.90;;;;;;8228370;28;20041;-78
2023/03/08 13:12:21;;;;;;;1.95;1.25;;;10.60;99.90;;;;;;8229274;28;20022;-77
2023/03/08 13:16:33;;;;;;;1.77;0.90;;;11.10;99.90;;;;;;8228372;28;20121;-77
2023/03/08 13:20:46;;;;;;;1.30;0.90;;;11.20;99.90;;;;;;8227601;28;20030;-76
2023/03/08 13:25:16;;;;;;;1.50;1.00;;;11.00;99.90;;;;;;8227819;28;20452;-77
2023/03/08 13:29:19;;;;;;;0.98;0.63;;;11.30;99.90;;;;;;8187026;28;20034;-77
2023/03/08 13:33:30;;;;;;;1.48;1.00;;;11.50;99.90;;;;;;8228279;28;20541;-77
2023/03/08 13:37:31;;;;;;;1.10;0.90;;;11.60;99.90;;;;;;8229243;28;20062;-77
2023/03/08 13:41:37;;;;;;;0.90;0.50;;;11.60;99.90;;;;;;8227854;28;20019;-77
2023/03/08 13:45:40;;;;;;;1.05;0.80;;;11.70;99.90;;;;;;8227060;28;20019;-77
2023/03/08 13:49:44;;;;;;;1.27;0.93;;;11.60;99.90;;;;;;8221261;28;20074;-76
2023/03/08 13:53:45;;;;;;;1.63;0.82;;;11.30;99.90;;;;;;8227256;28;20033;-77
2023/03/08 13:57:52;;;;;;;1.60;1.10;;;11.20;99.90;;;;;;8225726;28;20023;-77
2023/03/08 14:01:53;;;;;;;1.73;1.15;;;11.40;99.90;;;;;;8213870;28;20030;-77
2023/03/08 14:05:53;;;;;;;1.30;1.00;;;11.50;99.90;;;;;;8228073;28;20090;-78
2023/03/08 14:09:55;;;;;;;1.13;0.63;;;11.60;99.90;;;;;;8228422;28;20027;-77
2023/03/08 14:13:57;;;;;;;1.50;0.90;;;11.80;99.90;;;;;;8220264;28;20496;-78
2023/03/08 14:17:59;;;;;;;1.55;1.20;;;11.70;99.90;;;;;;8227935;28;20026;-77
2023/03/08 14:22:03;;;;;;;1.08;0.77;;;11.50;99.90;;;;;;8215759;28;20046;-78
2023/03/08 14:26:04;;;;;;;0.98;0.60;;;11.50;99.90;;;;;;8226611;28;20114;-77
2023/03/08 14:30:28;;;;;;;0.77;0.63;;;11.50;99.90;;;;;;8227030;28;20019;-78
2023/03/08 14:34:40;;;;;;;1.67;0.90;;;11.40;99.90;;;;;;8205546;28;20039;-78
2023/03/08 14:38:41;;;;;;;1.05;0.70;;;11.20;99.90;;;;;;8224171;28;20046;-78
2023/03/08 14:42:51;;;;;;;1.95;0.85;;;11.50;99.90;;;;;;8226267;28;20061;-77
2023/03/08 14:46:57;;;;;;;1.63;0.80;;;11.60;99.90;;;;;;8213782;28;20098;-76
2023/03/08 14:51:05;;;;;;;1.10;0.90;;;11.80;99.90;;;;;;8219993;28;20117;-77
2023/03/08 14:55:23;;;;;;;1.67;0.85;;;11.70;99.90;;;;;;8225816;28;20019;-77
2023/03/08 14:59:24;;;;;;;0.80;0.70;;;11.70;99.90;;;;;;8226185;28;20023;-78
2023/03/08 15:03:25;;;;;;;1.17;0.90;;;12.40;99.90;;;;;;8223931;28;20117;-78
2023/03/08 15:07:31;;;;;;;1.42;1.00;;;12.20;99.90;;;;;;8224927;28;20023;-78
2023/03/08 15:11:32;;;;;;;1.20;0.90;;;13.30;99.90;;;;;;8225749;28;20019;-77
2023/03/08 15:15:33;;;;;;;1.33;0.75;;;14.80;99.90;;;;;;8226671;28;20058;-77
2023/03/08 15:19:33;;;;;;;8.68;3.55;;;14.70;99.90;;;;;;8226828;28;20030;-79
2023/03/08 15:23:36;;;;;;;2.15;0.98;;;15.10;99.90;;;;;;8228315;28;20459;-77
2023/03/08 15:27:36;;;;;;;1.80;1.40;;;15.30;99.90;;;;;;8231661;28;20023;-77
2023/03/08 15:31:37;;;;;;;1.13;0.88;;;14.90;99.90;;;;;;8232147;28;20030;-77
2023/03/08 15:35:38;;;;;;;1.65;1.42;;;13.50;99.90;;;;;;8229318;28;20646;-77
2023/03/08 15:39:39;;;;;;;1.92;0.90;;;12.90;99.90;;;;;;8233141;28;20050;-77
2023/03/08 15:43:39;;;;;;;3.50;1.20;;;12.50;99.90;;;;;;8226372;28;20391;-77
2023/03/08 15:47:40;;;;;;;1.35;1.13;;;12.00;99.90;;;;;;8232450;28;20019;-78
2023/03/08 15:51:41;;;;;;;1.58;1.10;;;11.60;99.90;;;;;;8226356;28;20026;-77
2023/03/08 15:55:41;;;;;;;1.58;1.00;;;11.50;99.90;;;;;;8232341;28;20093;-78
2023/03/08 15:59:42;;;;;;;3.50;1.15;;;11.50;99.90;;;;;;8230095;28;20034;-77
2023/03/08 16:03:42;;;;;;;1.55;1.13;;;11.60;99.90;;;;;;8228784;28;20023;-77
2023/03/08 16:07:43;;;;;;;1.83;1.27;;;11.50;99.90;;;;;;8231652;28;20541;-78
2023/03/08 16:11:44;;;;;;;1.23;0.80;;;11.30;99.90;;;;;;8230640;28;20483;-77
2023/03/08 16:15:44;;;;;;;1.77;1.58;;;11.20;99.90;;;;;;8229612;28;20629;-77
2023/03/08 16:19:45;;;;;;;1.70;1.60;;;11.20;99.90;;;;;;8230338;28;20503;-77
2023/03/08 16:23:46;;;;;;;1.10;0.65;;;11.20;99.90;;;;;;8229843;28;20023;-78
2023/03/08 16:27:46;;;;;;;2.10;1.00;;;11.20;99.90;;;;;;8228728;28;20050;-77
2023/03/08 16:31:47;;;;;;;1.10;0.75;;;11.20;99.90;;;;;;8229974;28;20027;-78
2023/03/08 16:35:49;;;;;;;1.02;0.70;;;11.10;99.90;;;;;;8230365;28;20097;-78
2023/03/08 16:39:51;;;;;;;1.30;0.50;;;11.10;99.90;;;;;;8213695;28;20026;-77
2023/03/08 16:43:52;;;;;;;1.40;0.77;;;11.10;99.90;;;;;;8217281;28;20042;-77
2023/03/08 16:47:53;;;;;;;0.90;0.65;;;10.90;99.90;;;;;;8228734;28;20034;-77
2023/03/08 16:51:54;;;;;;;1.27;0.80;;;10.80;99.90;;;;;;8223959;28;20050;-77
2023/03/08 16:55:55;;;;;;;1.27;0.80;;;10.30;99.90;;;;;;8223124;28;20031;-77
2023/03/08 16:59:55;;;;;;;0.70;0.63;;;9.90;99.90;;;;;;8210855;28;20046;-76
2023/03/08 17:03:57;;;;;;;1.20;0.82;;;9.60;99.90;;;;;;8213325;28;20073;-76
2023/03/08 17:07:58;;;;;;;1.70;0.70;;;9.40;99.90;;;;;;8219350;28;20027;-76
2023/03/08 17:11:58;;;;;;;2.45;0.88;;;9.20;99.90;;;;;;8210456;28;20042;-76
2023/03/08 17:15:59;;;;;;;2.65;1.00;;;9.00;99.90;;;;;;8200839;28;20039;-76
2023/03/08 17:19:59;;;;;;;3.05;1.20;;;8.90;99.90;;;;;;8223474;28;20077;-78
2023/03/08 17:24:00;;;;;;;1.80;1.42;;;8.80;99.90;;;;;;8223336;28;20030;-77
2023/03/08 17:28:02;;;;;;;3.78;1.52;;;8.80;99.90;;;;;;8210411;28;20155;-77
2023/03/08 17:32:03;;;;;;;2.60;1.67;;;8.70;99.90;;;;;;8215891;28;20031;-81
2023/03/08 17:36:05;;;;;;;2.35;1.85;;;8.60;99.90;;;;;;8227896;28;20043;-82
2023/03/08 17:40:09;;;;;;;3.75;1.80;;;8.60;99.90;;;;;;8231427;28;20510;-81
2023/03/08 17:44:11;;;;;;;3.20;1.80;;;8.60;99.90;;;;;;8222338;28;20034;-81
2023/03/08 17:48:11;;;;;;;3.45;2.33;;;8.50;99.90;;;;;;8205638;28;20038;-82
2023/03/08 17:52:12;;;;;;;3.63;1.80;;;8.50;99.90;;;;;;8207695;28;20687;-82
2023/03/08 17:56:15;;;;;;;4.57;1.83;;;8.50;99.90;;;;;;8221512;28;20030;-76
2023/03/08 18:00:16;;;;;;;2.30;1.30;;;8.40;99.90;;;;;;8189921;28;20035;-78
2023/03/08 18:04:17;;;;;;;3.13;1.60;;;8.40;99.90;;;;;;8195833;28;20679;-77
2023/03/08 18:08:18;;;;;;;5.15;1.90;;;8.30;99.90;;;;;;8215666;28;20023;-76
2023/03/08 18:12:19;;;;;;;2.45;1.50;;;8.30;99.90;;;;;;8198893;28;20526;-77
2023/03/08 18:16:20;;;;;;;2.00;1.42;;;8.30;99.90;;;;;;8187271;28;20096;-78
2023/03/08 18:20:23;;;;;;;3.72;1.80;;;8.20;99.90;;;;;;8185370;28;20026;-76
2023/03/08 18:24:26;;;;;;;2.42;1.55;;;8.20;99.90;;;;;;8188819;28;20054;-78
2023/03/08 18:28:26;;;;;;;1.42;1.05;;;8.20;99.90;;;;;;8208186;28;20031;-77
2023/03/08 18:32:27;;;;;;;1.83;1.33;;;8.20;99.90;;;;;;8204792;28;20035;-78
2023/03/08 18:36:28;;;;;;;2.55;1.13;;;8.10;99.90;;;;;;8197451;28;20038;-77
2023/03/08 18:40:28;;;;;;;4.05;1.67;;;8.20;99.90;;;;;;8199548;28;20031;-77
2023/03/08 18:44:29;;;;;;;11.52;5.10;;;8.10;99.90;;;;;;8194583;28;20035;-77
2023/03/08 18:48:29;;;;;;;2.58;1.00;;;8.10;99.90;;;;;;8192576;28;20075;-77
2023/03/08 18:52:30;;;;;;;1.15;0.63;;;8.00;99.90;;;;;;8194112;28;20050;-77
2023/03/08 18:56:31;;;;;;;1.90;0.75;;;8.00;99.90;;;;;;8194148;28;20461;-77
2023/03/08 19:00:32;;;;;;;1.63;0.80;;;8.00;99.90;;;;;;8201941;28;20027;-77
2023/03/08 19:04:38;;;;;;;1.08;0.70;;;7.90;99.90;;;;;;8186905;28;20617;-77
2023/03/08 19:08:39;;;;;;;1.00;0.70;;;7.90;99.90;;;;;;8201987;28;20403;-76
2023/03/08 19:12:42;;;;;;;0.85;0.57;;;7.90;99.90;;;;;;8207756;28;20035;-76
2023/03/08 19:16:43;;;;;;;1.08;0.77;;;7.90;99.90;;;;;;8207503;28;20101;-76
2023/03/08 19:20:44;;;;;;;1.08;0.73;;;8.00;99.90;;;;;;8194384;28;20031;-76
2023/03/08 19:24:44;;;;;;;2.63;1.35;;;8.00;99.90;;;;;;8192534;29;20538;-76
2023/03/08 19:28:44;;;;;;;1.38;1.00;;;8.00;99.90;;;;;;8176855;28;20546;-77
2023/03/08 19:32:47;;;;;;;4.47;1.23;;;8.00;99.90;;;;;;8180998;29;20031;-77
2023/03/08 19:36:48;;;;;;;1.10;0.90;;;8.10;99.90;;;;;;8175125;28;20047;-77
2023/03/08 19:40:48;;;;;;;2.03;1.23;;;8.10;99.90;;;;;;8218632;28;20523;-76
2023/03/08 19:44:51;;;;;;;2.42;1.60;;;8.20;99.90;;;;;;8203930;28;20041;-77
2023/03/08 19:48:51;;;;;;;1.50;1.17;;;8.20;99.90;;;;;;8221262;28;20055;-77
2023/03/08 19:52:52;;;;;;;3.33;1.73;;;8.20;99.90;;;;;;8210351;28;20034;-78
2023/03/08 19:56:53;;;;;;;1.88;1.73;;;8.20;99.90;;;;;;8213881;28;20097;-77
2023/03/08 20:01:04;;;;;;;1.92;1.70;;;8.20;99.90;;;;;;8209474;28;20046;-77
2023/03/08 20:05:05;;;;;;;2.97;1.85;;;8.30;99.90;;;;;;8198727;28;20045;-76
2023/03/08 20:09:08;;;;;;;1.48;1.02;;;8.30;99.90;;;;;;8216796;28;20027;-77
2023/03/08 20:13:08;;;;;;;2.60;1.77;;;8.40;99.90;;;;;;8221401;28;20031;-78
2023/03/08 20:17:09;;;;;;;2.80;2.10;;;8.40;99.90;;;;;;8226086;28;20066;-77
2023/03/08 20:21:10;;;;;;;2.67;1.60;;;8.40;99.90;;;;;;8205566;28;20019;-78
2023/03/08 20:25:11;;;;;;;1.85;1.48;;;8.50;99.90;;;;;;8206283;28;20042;-78
2023/03/08 20:29:12;;;;;;;2.75;1.85;;;8.50;99.90;;;;;;8205443;28;20177;-77
2023/03/08 20:33:12;;;;;;;2.95;2.00;;;8.60;99.90;;;;;;8201500;28;20031;-78
2023/03/08 20:37:13;;;;;;;2.03;1.50;;;8.70;99.90;;;;;;8199319;28;20106;-76
2023/03/08 20:41:16;;;;;;;3.80;1.83;;;8.80;99.90;;;;;;8199444;28;20035;-78
2023/03/08 20:45:17;;;;;;;3.88;2.50;;;8.80;99.90;;;;;;8196393;28;20043;-77
2023/03/08 20:49:18;;;;;;;3.17;2.33;;;8.90;99.90;;;;;;8201818;28;20106;-77
2023/03/08 20:53:18;;;;;;;2.38;1.67;;;8.90;99.90;;;;;;8186357;28;20611;-78
2023/03/08 20:57:19;;;;;;;4.20;2.75;;;9.00;99.90;;;;;;8202196;28;20023;-77
2023/03/08 21:01:22;;;;;;;3.40;2.67;;;9.00;99.90;;;;;;8184810;28;20114;-78
2023/03/08 21:05:23;;;;;;;4.53;2.53;;;9.00;99.90;;;;;;8199687;28;20532;-76
2023/03/08 21:09:24;;;;;;;3.25;2.28;;;9.00;99.90;;;;;;8197117;28;20056;-76
2023/03/08 21:13:24;;;;;;;2.92;1.83;;;9.00;99.90;;;;;;8205176;28;20035;-79